sensor_id;sensor_type;location;lat;lon;timestamp;P1;durP1;ratioP1;P2;durP2;ratioP2
40959;SDS011;27842;52.272;8.052;2023-02-23T00:03:39;41.10;;;26.65;;
40959;SDS011;27842;52.272;8.052;2023-02-23T00:06:06;38.33;;;25.95;;
40959;SDS011;27842;52.272;8.052;2023-02-23T00:08:32;39.13;;;26.13;;
40959;SDS011;27842;52.272;8.052;2023-02-23T00:11:00;38.95;;;25.88;;
40959;SDS011;27842;52.272;8.052;2023-02-23T00:13:31;44.47;;;27.77;;
40959;SDS011;27842;52.272;8.052;2023-02-23T00:16:03;37.65;;;25.48;;
40959;SDS011;27842;52.272;8.052;2023-02-23T00:18:30;42.25;;;25.77;;
40959;SDS011;27842;52.272;8.052;2023-02-23T00:21:05;43.50;;;26.77;;
40959;SDS011;27842;52.272;8.052;2023-02-23T00:23:30;40.78;;;27.80;;
40959;SDS011;27842;52.272;8.052;2023-02-23T00:25:56;40.92;;;26.30;;
40959;SDS011;27842;52.272;8.052;2023-02-23T00:28:23;40.40;;;27.25;;
40959;SDS011;27842;52.272;8.052;2023-02-23T00:30:49;44.53;;;28.65;;
40959;SDS011;27842;52.272;8.052;2023-02-23T00:33:14;41.00;;;27.27;;
40959;SDS011;27842;52.272;8.052;2023-02-23T00:35:40;41.40;;;28.40;;
40959;SDS011;27842;52.272;8.052;2023-02-23T00:38:06;43.78;;;28.73;;
40959;SDS011;27842;52.272;8.052;2023-02-23T00:40:32;44.72;;;28.52;;
40959;SDS011;27842;52.272;8.052;2023-02-23T00:42:58;43.10;;;28.83;;
40959;SDS011;27842;52.272;8.052;2023-02-23T00:45:24;42.72;;;28.83;;
40959;SDS011;27842;52.272;8.052;2023-02-23T00:47:50;46.45;;;29.83;;
40959;SDS011;27842;52.272;8.052;2023-02-23T00:50:16;42.88;;;30.50;;
40959;SDS011;27842;52.272;8.052;2023-02-23T00:52:42;44.30;;;29.45;;
40959;SDS011;27842;52.272;8.052;2023-02-23T00:55:08;42.67;;;29.80;;
40959;SDS011;27842;52.272;8.052;2023-02-23T00:57:36;48.30;;;30.42;;
40959;SDS011;27842;52.272;8.052;2023-02-23T01:00:06;46.00;;;31.08;;
40959;SDS011;27842;52.272;8.052;2023-02-23T01:02:51;48.78;;;30.73;;
40959;SDS011;27842;52.272;8.052;2023-02-23T01:05:17;45.78;;;31.38;;
40959;SDS011;27842;52.272;8.052;2023-02-23T01:07:44;47.53;;;31.30;;
40959;SDS011;27842;52.272;8.052;2023-02-23T01:10:13;51.88;;;33.42;;
40959;SDS011;27842;52.272;8.052;2023-02-23T01:12:45;49.80;;;33.65;;
40959;SDS011;27842;52.272;8.052;2023-02-23T01:15:16;50.90;;;32.15;;
40959;SDS011;27842;52.272;8.052;2023-02-23T01:17:42;55.92;;;34.78;;
40959;SDS011;27842;52.272;8.052;2023-02-23T01:20:09;51.47;;;34.72;;
40959;SDS011;27842;52.272;8.052;2023-02-23T01:22:44;51.00;;;34.58;;
40959;SDS011;27842;52.272;8.052;2023-02-23T01:25:11;53.40;;;33.08;;
40959;SDS011;27842;52.272;8.052;2023-02-23T01:27:37;52.20;;;35.03;;
40959;SDS011;27842;52.272;8.052;2023-02-23T01:30:04;55.28;;;35.70;;
40959;SDS011;27842;52.272;8.052;2023-02-23T01:32:31;53.65;;;34.53;;
40959;SDS011;27842;52.272;8.052;2023-02-23T01:34:59;50.90;;;33.13;;
40959;SDS011;27842;52.272;8.052;2023-02-23T01:37:24;55.88;;;34.67;;
40959;SDS011;27842;52.272;8.052;2023-02-23T01:39:50;53.33;;;34.00;;
40959;SDS011;27842;52.272;8.052;2023-02-23T01:42:15;56.33;;;34.50;;
40959;SDS011;27842;52.272;8.052;2023-02-23T01:47:06;54.30;;;34.10;;
40959;SDS011;27842;52.272;8.052;2023-02-23T01:49:32;53.70;;;34.55;;
40959;SDS011;27842;52.272;8.052;2023-02-23T01:52:03;52.08;;;34.55;;
40959;SDS011;27842;52.272;8.052;2023-02-23T01:54:32;59.83;;;34.60;;
40959;SDS011;27842;52.272;8.052;2023-02-23T01:57:02;54.90;;;36.35;;
40959;SDS011;27842;52.272;8.052;2023-02-23T01:59:31;57.20;;;35.63;;
40959;SDS011;27842;52.272;8.052;2023-02-23T02:02:02;56.30;;;35.78;;
40959;SDS011;27842;52.272;8.052;2023-02-23T02:04:32;53.42;;;34.08;;
40959;SDS011;27842;52.272;8.052;2023-02-23T02:07:15;58.10;;;36.45;;
40959;SDS011;27842;52.272;8.052;2023-02-23T02:09:50;54.38;;;35.47;;
40959;SDS011;27842;52.272;8.052;2023-02-23T02:12:37;55.13;;;35.30;;
40959;SDS011;27842;52.272;8.052;2023-02-23T02:15:08;55.55;;;35.10;;
40959;SDS011;27842;52.272;8.052;2023-02-23T02:37:06;57.65;;;36.10;;
40959;SDS011;27842;52.272;8.052;2023-02-23T02:42:20;56.05;;;36.35;;
40959;SDS011;27842;52.272;8.052;2023-02-23T02:47:50;57.65;;;35.90;;
40959;SDS011;27842;52.272;8.052;2023-02-23T02:50:49;53.45;;;35.58;;
40959;SDS011;27842;52.272;8.052;2023-02-23T02:53:54;58.67;;;36.50;;
40959;SDS011;27842;52.272;8.052;2023-02-23T02:56:30;60.60;;;37.55;;
40959;SDS011;27842;52.272;8.052;2023-02-23T02:59:00;56.42;;;35.53;;
40959;SDS011;27842;52.272;8.052;2023-02-23T03:01:27;57.85;;;37.75;;
40959;SDS011;27842;52.272;8.052;2023-02-23T03:04:21;60.17;;;36.63;;
40959;SDS011;27842;52.272;8.052;2023-02-23T03:07:22;56.13;;;36.97;;
40959;SDS011;27842;52.272;8.052;2023-02-23T03:10:16;57.10;;;36.13;;
40959;SDS011;27842;52.272;8.052;2023-02-23T03:16:07;55.90;;;35.85;;
40959;SDS011;27842;52.272;8.052;2023-02-23T03:25:28;58.75;;;36.58;;
40959;SDS011;27842;52.272;8.052;2023-02-23T03:28:24;56.67;;;36.42;;
40959;SDS011;27842;52.272;8.052;2023-02-23T03:31:15;59.17;;;36.15;;
40959;SDS011;27842;52.272;8.052;2023-02-23T03:34:40;56.97;;;38.28;;
40959;SDS011;27842;52.272;8.052;2023-02-23T03:37:34;58.97;;;36.45;;
40959;SDS011;27842;52.272;8.052;2023-02-23T03:40:25;57.47;;;37.25;;
40959;SDS011;27842;52.272;8.052;2023-02-23T03:43:15;56.45;;;36.53;;
40959;SDS011;27842;52.272;8.052;2023-02-23T03:46:07;62.08;;;38.22;;
40959;SDS011;27842;52.272;8.052;2023-02-23T03:48:54;58.92;;;36.88;;
40959;SDS011;27842;52.272;8.052;2023-02-23T03:51:42;62.33;;;37.90;;
40959;SDS011;27842;52.272;8.052;2023-02-23T03:54:34;57.97;;;37.22;;
40959;SDS011;27842;52.272;8.052;2023-02-23T03:57:22;60.53;;;38.20;;
40959;SDS011;27842;52.272;8.052;2023-02-23T04:00:11;58.35;;;37.25;;
40959;SDS011;27842;52.272;8.052;2023-02-23T04:03:03;58.83;;;38.50;;
40959;SDS011;27842;52.272;8.052;2023-02-23T04:05:50;58.03;;;38.45;;
40959;SDS011;27842;52.272;8.052;2023-02-23T04:08:38;63.08;;;38.08;;
40959;SDS011;27842;52.272;8.052;2023-02-23T04:11:30;62.70;;;39.72;;
40959;SDS011;27842;52.272;8.052;2023-02-23T04:14:25;59.30;;;39.40;;
40959;SDS011;27842;52.272;8.052;2023-02-23T04:17:07;62.97;;;39.53;;
40959;SDS011;27842;52.272;8.052;2023-02-23T04:19:33;61.70;;;37.47;;
40959;SDS011;27842;52.272;8.052;2023-02-23T04:21:59;60.25;;;37.97;;
40959;SDS011;27842;52.272;8.052;2023-02-23T04:24:24;63.92;;;39.28;;
40959;SDS011;27842;52.272;8.052;2023-02-23T04:26:50;66.50;;;40.72;;
40959;SDS011;27842;52.272;8.052;2023-02-23T04:29:15;61.63;;;39.33;;
40959;SDS011;27842;52.272;8.052;2023-02-23T04:31:41;59.60;;;38.33;;
40959;SDS011;27842;52.272;8.052;2023-02-23T04:34:06;60.95;;;39.60;;
40959;SDS011;27842;52.272;8.052;2023-02-23T04:36:32;62.83;;;39.50;;
40959;SDS011;27842;52.272;8.052;2023-02-23T04:38:58;59.95;;;39.75;;
40959;SDS011;27842;52.272;8.052;2023-02-23T04:41:23;60.58;;;40.47;;
40959;SDS011;27842;52.272;8.052;2023-02-23T04:43:49;57.50;;;39.10;;
40959;SDS011;27842;52.272;8.052;2023-02-23T04:46:14;60.92;;;39.78;;
40959;SDS011;27842;52.272;8.052;2023-02-23T04:48:40;63.40;;;38.97;;
40959;SDS011;27842;52.272;8.052;2023-02-23T04:51:05;63.00;;;40.95;;
40959;SDS011;27842;52.272;8.052;2023-02-23T04:53:31;63.50;;;41.10;;
40959;SDS011;27842;52.272;8.052;2023-02-23T04:55:57;66.43;;;41.53;;
40959;SDS011;27842;52.272;8.052;2023-02-23T04:58:22;65.20;;;41.50;;
40959;SDS011;27842;52.272;8.052;2023-02-23T05:00:48;62.97;;;42.25;;
40959;SDS011;27842;52.272;8.052;2023-02-23T05:03:14;62.47;;;40.90;;
40959;SDS011;27842;52.272;8.052;2023-02-23T05:05:41;64.78;;;41.58;;
40959;SDS011;27842;52.272;8.052;2023-02-23T05:08:07;64.07;;;40.88;;
40959;SDS011;27842;52.272;8.052;2023-02-23T05:10:33;65.70;;;42.55;;
40959;SDS011;27842;52.272;8.052;2023-02-23T05:12:59;63.63;;;41.40;;
40959;SDS011;27842;52.272;8.052;2023-02-23T05:15:25;66.43;;;43.00;;
40959;SDS011;27842;52.272;8.052;2023-02-23T05:17:51;66.63;;;42.38;;
40959;SDS011;27842;52.272;8.052;2023-02-23T05:20:19;64.57;;;43.05;;
40959;SDS011;27842;52.272;8.052;2023-02-23T05:22:44;69.38;;;44.22;;
40959;SDS011;27842;52.272;8.052;2023-02-23T05:25:10;66.72;;;41.97;;
40959;SDS011;27842;52.272;8.052;2023-02-23T05:27:35;67.22;;;43.53;;
40959;SDS011;27842;52.272;8.052;2023-02-23T05:30:01;66.85;;;42.80;;
40959;SDS011;27842;52.272;8.052;2023-02-23T05:32:27;66.65;;;43.47;;
40959;SDS011;27842;52.272;8.052;2023-02-23T05:34:53;67.05;;;43.03;;
40959;SDS011;27842;52.272;8.052;2023-02-23T05:37:18;67.70;;;42.67;;
40959;SDS011;27842;52.272;8.052;2023-02-23T05:39:45;69.40;;;44.88;;
40959;SDS011;27842;52.272;8.052;2023-02-23T05:42:11;64.80;;;43.92;;
40959;SDS011;27842;52.272;8.052;2023-02-23T05:44:37;65.35;;;43.92;;
40959;SDS011;27842;52.272;8.052;2023-02-23T05:47:02;67.40;;;45.22;;
40959;SDS011;27842;52.272;8.052;2023-02-23T05:49:28;67.38;;;43.88;;
40959;SDS011;27842;52.272;8.052;2023-02-23T05:51:54;69.53;;;44.92;;
40959;SDS011;27842;52.272;8.052;2023-02-23T05:54:19;67.85;;;43.17;;
40959;SDS011;27842;52.272;8.052;2023-02-23T05:56:45;68.25;;;43.75;;
40959;SDS011;27842;52.272;8.052;2023-02-23T05:59:10;68.18;;;44.42;;
40959;SDS011;27842;52.272;8.052;2023-02-23T06:01:37;67.97;;;41.40;;
40959;SDS011;27842;52.272;8.052;2023-02-23T06:04:03;74.70;;;45.65;;
40959;SDS011;27842;52.272;8.052;2023-02-23T06:06:29;71.47;;;43.50;;
40959;SDS011;27842;52.272;8.052;2023-02-23T06:08:55;74.63;;;43.13;;
40959;SDS011;27842;52.272;8.052;2023-02-23T06:11:20;72.28;;;42.83;;
40959;SDS011;27842;52.272;8.052;2023-02-23T06:13:47;70.40;;;40.63;;
40959;SDS011;27842;52.272;8.052;2023-02-23T06:16:13;67.60;;;40.80;;
40959;SDS011;27842;52.272;8.052;2023-02-23T06:18:38;73.28;;;42.20;;
40959;SDS011;27842;52.272;8.052;2023-02-23T06:21:04;71.28;;;41.88;;
40959;SDS011;27842;52.272;8.052;2023-02-23T06:23:30;70.47;;;40.85;;
40959;SDS011;27842;52.272;8.052;2023-02-23T06:25:56;71.00;;;42.58;;
40959;SDS011;27842;52.272;8.052;2023-02-23T06:28:23;76.57;;;41.25;;
40959;SDS011;27842;52.272;8.052;2023-02-23T06:30:53;73.65;;;43.53;;
40959;SDS011;27842;52.272;8.052;2023-02-23T06:33:19;72.10;;;42.08;;
40959;SDS011;27842;52.272;8.052;2023-02-23T06:35:46;72.97;;;42.05;;
40959;SDS011;27842;52.272;8.052;2023-02-23T06:38:11;75.78;;;42.75;;
40959;SDS011;27842;52.272;8.052;2023-02-23T06:40:37;72.15;;;40.63;;
40959;SDS011;27842;52.272;8.052;2023-02-23T06:43:03;76.15;;;42.80;;
40959;SDS011;27842;52.272;8.052;2023-02-23T06:45:30;75.70;;;42.30;;
40959;SDS011;27842;52.272;8.052;2023-02-23T06:47:56;73.55;;;41.50;;
40959;SDS011;27842;52.272;8.052;2023-02-23T06:50:23;78.97;;;40.22;;
40959;SDS011;27842;52.272;8.052;2023-02-23T06:52:48;81.10;;;42.90;;
40959;SDS011;27842;52.272;8.052;2023-02-23T06:55:14;77.82;;;42.65;;
40959;SDS011;27842;52.272;8.052;2023-02-23T06:57:40;74.25;;;40.97;;
40959;SDS011;27842;52.272;8.052;2023-02-23T07:00:06;79.53;;;41.47;;
40959;SDS011;27842;52.272;8.052;2023-02-23T07:02:32;84.15;;;42.22;;
40959;SDS011;27842;52.272;8.052;2023-02-23T07:05:00;76.13;;;41.38;;
40959;SDS011;27842;52.272;8.052;2023-02-23T07:07:26;75.90;;;41.67;;
40959;SDS011;27842;52.272;8.052;2023-02-23T07:09:51;80.10;;;40.40;;
40959;SDS011;27842;52.272;8.052;2023-02-23T07:12:17;77.22;;;41.78;;
40959;SDS011;27842;52.272;8.052;2023-02-23T07:14:42;72.10;;;39.65;;
40959;SDS011;27842;52.272;8.052;2023-02-23T07:17:08;79.53;;;40.88;;
40959;SDS011;27842;52.272;8.052;2023-02-23T07:19:34;74.45;;;39.15;;
40959;SDS011;27842;52.272;8.052;2023-02-23T07:21:59;75.70;;;41.22;;
40959;SDS011;27842;52.272;8.052;2023-02-23T07:24:25;73.22;;;39.83;;
40959;SDS011;27842;52.272;8.052;2023-02-23T07:26:52;71.75;;;38.78;;
40959;SDS011;27842;52.272;8.052;2023-02-23T07:29:17;79.20;;;40.55;;
40959;SDS011;27842;52.272;8.052;2023-02-23T07:31:44;76.65;;;39.63;;
40959;SDS011;27842;52.272;8.052;2023-02-23T07:34:09;81.35;;;40.67;;
40959;SDS011;27842;52.272;8.052;2023-02-23T07:36:35;76.72;;;38.83;;
40959;SDS011;27842;52.272;8.052;2023-02-23T07:39:04;79.80;;;40.10;;
40959;SDS011;27842;52.272;8.052;2023-02-23T07:41:31;77.05;;;40.25;;
40959;SDS011;27842;52.272;8.052;2023-02-23T07:43:57;80.93;;;39.60;;
40959;SDS011;27842;52.272;8.052;2023-02-23T07:46:23;79.97;;;41.25;;
40959;SDS011;27842;52.272;8.052;2023-02-23T07:48:49;76.68;;;39.08;;
40959;SDS011;27842;52.272;8.052;2023-02-23T07:51:15;78.30;;;39.65;;
40959;SDS011;27842;52.272;8.052;2023-02-23T07:53:41;81.82;;;41.08;;
40959;SDS011;27842;52.272;8.052;2023-02-23T07:56:08;76.32;;;40.70;;
40959;SDS011;27842;52.272;8.052;2023-02-23T07:58:35;73.88;;;39.50;;
40959;SDS011;27842;52.272;8.052;2023-02-23T08:01:04;83.57;;;42.25;;
40959;SDS011;27842;52.272;8.052;2023-02-23T08:03:30;74.22;;;39.15;;
40959;SDS011;27842;52.272;8.052;2023-02-23T08:05:56;78.97;;;39.33;;
40959;SDS011;27842;52.272;8.052;2023-02-23T08:08:22;75.85;;;39.65;;
40959;SDS011;27842;52.272;8.052;2023-02-23T08:10:47;85.95;;;41.78;;
40959;SDS011;27842;52.272;8.052;2023-02-23T08:13:13;81.13;;;40.95;;
40959;SDS011;27842;52.272;8.052;2023-02-23T08:15:39;82.57;;;40.47;;
40959;SDS011;27842;52.272;8.052;2023-02-23T08:18:05;80.68;;;41.42;;
40959;SDS011;27842;52.272;8.052;2023-02-23T08:20:31;82.03;;;41.10;;
40959;SDS011;27842;52.272;8.052;2023-02-23T08:22:57;84.15;;;41.42;;
40959;SDS011;27842;52.272;8.052;2023-02-23T08:25:23;80.95;;;40.65;;
40959;SDS011;27842;52.272;8.052;2023-02-23T08:27:49;81.55;;;39.83;;
40959;SDS011;27842;52.272;8.052;2023-02-23T08:30:19;87.60;;;42.05;;
40959;SDS011;27842;52.272;8.052;2023-02-23T08:32:45;84.53;;;39.75;;
40959;SDS011;27842;52.272;8.052;2023-02-23T08:35:12;86.57;;;41.97;;
40959;SDS011;27842;52.272;8.052;2023-02-23T08:37:38;85.80;;;39.40;;
40959;SDS011;27842;52.272;8.052;2023-02-23T08:40:05;82.50;;;40.05;;
40959;SDS011;27842;52.272;8.052;2023-02-23T08:42:32;84.63;;;42.17;;
40959;SDS011;27842;52.272;8.052;2023-02-23T08:44:58;85.85;;;42.38;;
40959;SDS011;27842;52.272;8.052;2023-02-23T08:47:25;83.10;;;40.60;;
40959;SDS011;27842;52.272;8.052;2023-02-23T08:49:51;82.88;;;40.40;;
40959;SDS011;27842;52.272;8.052;2023-02-23T08:52:21;77.80;;;40.15;;
40959;SDS011;27842;52.272;8.052;2023-02-23T08:54:47;83.70;;;40.47;;
40959;SDS011;27842;52.272;8.052;2023-02-23T08:57:13;77.57;;;38.97;;
40959;SDS011;27842;52.272;8.052;2023-02-23T08:59:39;75.97;;;39.50;;
40959;SDS011;27842;52.272;8.052;2023-02-23T09:02:05;81.50;;;38.65;;
40959;SDS011;27842;52.272;8.052;2023-02-23T09:04:35;86.25;;;40.42;;
40959;SDS011;27842;52.272;8.052;2023-02-23T09:07:01;84.40;;;39.92;;
40959;SDS011;27842;52.272;8.052;2023-02-23T09:09:28;81.72;;;39.55;;
40959;SDS011;27842;52.272;8.052;2023-02-23T09:11:53;84.15;;;40.90;;
40959;SDS011;27842;52.272;8.052;2023-02-23T09:14:19;81.32;;;39.50;;
40959;SDS011;27842;52.272;8.052;2023-02-23T09:16:45;79.85;;;39.10;;
40959;SDS011;27842;52.272;8.052;2023-02-23T09:19:11;83.55;;;41.15;;
40959;SDS011;27842;52.272;8.052;2023-02-23T09:21:37;84.50;;;39.70;;
40959;SDS011;27842;52.272;8.052;2023-02-23T09:24:03;84.75;;;39.15;;
40959;SDS011;27842;52.272;8.052;2023-02-23T09:26:28;81.47;;;40.42;;
40959;SDS011;27842;52.272;8.052;2023-02-23T09:28:57;83.35;;;39.75;;
40959;SDS011;27842;52.272;8.052;2023-02-23T09:31:23;80.55;;;40.63;;
40959;SDS011;27842;52.272;8.052;2023-02-23T09:33:49;80.78;;;39.00;;
40959;SDS011;27842;52.272;8.052;2023-02-23T09:36:17;83.93;;;39.97;;
40959;SDS011;27842;52.272;8.052;2023-02-23T09:38:45;83.57;;;40.88;;
40959;SDS011;27842;52.272;8.052;2023-02-23T09:41:38;88.22;;;41.15;;
40959;SDS011;27842;52.272;8.052;2023-02-23T09:50:20;76.38;;;38.50;;
40959;SDS011;27842;52.272;8.052;2023-02-23T09:52:51;81.30;;;39.42;;
40959;SDS011;27842;52.272;8.052;2023-02-23T09:55:38;83.57;;;41.80;;
40959;SDS011;27842;52.272;8.052;2023-02-23T09:58:07;82.55;;;41.22;;
40959;SDS011;27842;52.272;8.052;2023-02-23T10:00:50;79.22;;;38.80;;
40959;SDS011;27842;52.272;8.052;2023-02-23T10:03:39;87.93;;;39.55;;
40959;SDS011;27842;52.272;8.052;2023-02-23T10:06:13;85.57;;;40.22;;
40959;SDS011;27842;52.272;8.052;2023-02-23T10:14:14;86.45;;;39.65;;
40959;SDS011;27842;52.272;8.052;2023-02-23T10:22:39;86.53;;;38.95;;
40959;SDS011;27842;52.272;8.052;2023-02-23T10:25:08;75.45;;;37.20;;
40959;SDS011;27842;52.272;8.052;2023-02-23T10:27:39;76.75;;;37.20;;
40959;SDS011;27842;52.272;8.052;2023-02-23T10:30:15;72.82;;;34.15;;
40959;SDS011;27842;52.272;8.052;2023-02-23T10:35:28;75.65;;;34.33;;
40959;SDS011;27842;52.272;8.052;2023-02-23T10:37:55;77.20;;;35.53;;
40959;SDS011;27842;52.272;8.052;2023-02-23T10:40:22;70.15;;;32.13;;
40959;SDS011;27842;52.272;8.052;2023-02-23T10:42:51;69.57;;;32.30;;
40959;SDS011;27842;52.272;8.052;2023-02-23T10:45:19;70.38;;;32.25;;
40959;SDS011;27842;52.272;8.052;2023-02-23T10:47:50;73.20;;;32.63;;
40959;SDS011;27842;52.272;8.052;2023-02-23T10:50:19;63.88;;;30.63;;
40959;SDS011;27842;52.272;8.052;2023-02-23T10:52:47;66.65;;;30.52;;
40959;SDS011;27842;52.272;8.052;2023-02-23T10:55:19;64.33;;;31.73;;
40959;SDS011;27842;52.272;8.052;2023-02-23T10:57:59;68.72;;;31.80;;
40959;SDS011;27842;52.272;8.052;2023-02-23T11:00:32;70.20;;;29.17;;
40959;SDS011;27842;52.272;8.052;2023-02-23T11:03:01;62.33;;;28.27;;
40959;SDS011;27842;52.272;8.052;2023-02-23T11:05:43;61.63;;;27.63;;
40959;SDS011;27842;52.272;8.052;2023-02-23T11:08:18;58.13;;;28.48;;
40959;SDS011;27842;52.272;8.052;2023-02-23T11:13:42;54.20;;;26.47;;
40959;SDS011;27842;52.272;8.052;2023-02-23T11:16:13;52.47;;;26.27;;
40959;SDS011;27842;52.272;8.052;2023-02-23T11:18:40;48.42;;;23.55;;
40959;SDS011;27842;52.272;8.052;2023-02-23T11:21:22;51.25;;;25.15;;
40959;SDS011;27842;52.272;8.052;2023-02-23T11:24:15;48.70;;;23.45;;
40959;SDS011;27842;52.272;8.052;2023-02-23T11:26:46;47.50;;;23.63;;
40959;SDS011;27842;52.272;8.052;2023-02-23T11:29:24;47.90;;;23.98;;
40959;SDS011;27842;52.272;8.052;2023-02-23T11:31:57;46.30;;;23.05;;
40959;SDS011;27842;52.272;8.052;2023-02-23T11:34:36;47.53;;;23.92;;
40959;SDS011;27842;52.272;8.052;2023-02-23T11:37:05;51.83;;;24.20;;
40959;SDS011;27842;52.272;8.052;2023-02-23T11:39:54;47.92;;;23.98;;
40959;SDS011;27842;52.272;8.052;2023-02-23T11:42:25;46.63;;;23.23;;
40959;SDS011;27842;52.272;8.052;2023-02-23T11:45:01;50.90;;;25.27;;
40959;SDS011;27842;52.272;8.052;2023-02-23T11:47:27;49.45;;;25.17;;
40959;SDS011;27842;52.272;8.052;2023-02-23T11:49:55;50.08;;;24.88;;
40959;SDS011;27842;52.272;8.052;2023-02-23T11:52:21;52.40;;;25.38;;
40959;SDS011;27842;52.272;8.052;2023-02-23T11:55:02;51.45;;;25.02;;
40959;SDS011;27842;52.272;8.052;2023-02-23T11:57:33;45.65;;;21.85;;
40959;SDS011;27842;52.272;8.052;2023-02-23T12:00:34;46.40;;;22.85;;
40959;SDS011;27842;52.272;8.052;2023-02-23T12:02:59;43.83;;;22.02;;
40959;SDS011;27842;52.272;8.052;2023-02-23T12:05:28;45.10;;;22.10;;
40959;SDS011;27842;52.272;8.052;2023-02-23T12:08:12;39.70;;;21.08;;
40959;SDS011;27842;52.272;8.052;2023-02-23T12:10:46;40.97;;;20.27;;
40959;SDS011;27842;52.272;8.052;2023-02-23T12:16:00;42.70;;;21.90;;
40959;SDS011;27842;52.272;8.052;2023-02-23T12:35:22;42.55;;;20.38;;
40959;SDS011;27842;52.272;8.052;2023-02-23T12:37:53;42.28;;;20.40;;
40959;SDS011;27842;52.272;8.052;2023-02-23T12:40:43;38.17;;;19.63;;
40959;SDS011;27842;52.272;8.052;2023-02-23T12:43:31;40.70;;;20.88;;
40959;SDS011;27842;52.272;8.052;2023-02-23T12:46:08;42.67;;;18.52;;
40959;SDS011;27842;52.272;8.052;2023-02-23T12:48:54;39.10;;;19.30;;
40959;SDS011;27842;52.272;8.052;2023-02-23T12:51:25;39.05;;;20.40;;
40959;SDS011;27842;52.272;8.052;2023-02-23T12:53:55;40.47;;;20.00;;
40959;SDS011;27842;52.272;8.052;2023-02-23T12:59:25;36.72;;;16.98;;
40959;SDS011;27842;52.272;8.052;2023-02-23T13:02:24;30.38;;;13.88;;
40959;SDS011;27842;52.272;8.052;2023-02-23T13:05:00;33.90;;;15.02;;
40959;SDS011;27842;52.272;8.052;2023-02-23T13:13:11;32.08;;;14.10;;
40959;SDS011;27842;52.272;8.052;2023-02-23T13:16:26;29.83;;;13.82;;
40959;SDS011;27842;52.272;8.052;2023-02-23T13:19:09;31.80;;;14.30;;
40959;SDS011;27842;52.272;8.052;2023-02-23T13:21:44;35.00;;;16.02;;
40959;SDS011;27842;52.272;8.052;2023-02-23T13:24:24;37.90;;;16.17;;
40959;SDS011;27842;52.272;8.052;2023-02-23T13:27:14;31.75;;;15.48;;
40959;SDS011;27842;52.272;8.052;2023-02-23T13:29:46;34.28;;;15.98;;
40959;SDS011;27842;52.272;8.052;2023-02-23T13:32:17;36.00;;;16.60;;
40959;SDS011;27842;52.272;8.052;2023-02-23T13:34:51;35.30;;;16.92;;
40959;SDS011;27842;52.272;8.052;2023-02-23T13:37:23;35.53;;;17.35;;
40959;SDS011;27842;52.272;8.052;2023-02-23T13:45:52;40.25;;;18.48;;
40959;SDS011;27842;52.272;8.052;2023-02-23T13:54:00;36.00;;;18.67;;
40959;SDS011;27842;52.272;8.052;2023-02-23T13:56:31;36.67;;;18.08;;
40959;SDS011;27842;52.272;8.052;2023-02-23T13:59:21;37.55;;;18.90;;
40959;SDS011;27842;52.272;8.052;2023-02-23T14:01:50;36.50;;;18.33;;
40959;SDS011;27842;52.272;8.052;2023-02-23T14:04:28;37.90;;;18.38;;
40959;SDS011;27842;52.272;8.052;2023-02-23T14:07:04;36.03;;;17.30;;
40959;SDS011;27842;52.272;8.052;2023-02-23T14:12:23;38.92;;;18.17;;
40959;SDS011;27842;52.272;8.052;2023-02-23T14:15:40;36.70;;;17.80;;
40959;SDS011;27842;52.272;8.052;2023-02-23T14:21:10;37.60;;;17.75;;
40959;SDS011;27842;52.272;8.052;2023-02-23T14:24:03;35.80;;;16.65;;
40959;SDS011;27842;52.272;8.052;2023-02-23T14:26:45;37.35;;;16.40;;
40959;SDS011;27842;52.272;8.052;2023-02-23T14:29:43;37.07;;;17.13;;
40959;SDS011;27842;52.272;8.052;2023-02-23T14:32:28;35.95;;;17.10;;
40959;SDS011;27842;52.272;8.052;2023-02-23T14:34:59;37.40;;;16.15;;
40959;SDS011;27842;52.272;8.052;2023-02-23T14:39:55;40.20;;;18.20;;
40959;SDS011;27842;52.272;8.052;2023-02-23T14:42:40;35.47;;;17.98;;
40959;SDS011;27842;52.272;8.052;2023-02-23T14:45:20;36.13;;;16.67;;
40959;SDS011;27842;52.272;8.052;2023-02-23T14:47:55;35.97;;;16.38;;
40959;SDS011;27842;52.272;8.052;2023-02-23T14:50:31;38.63;;;17.02;;
40959;SDS011;27842;52.272;8.052;2023-02-23T14:52:58;38.43;;;17.10;;
40959;SDS011;27842;52.272;8.052;2023-02-23T14:55:27;33.92;;;15.73;;
40959;SDS011;27842;52.272;8.052;2023-02-23T14:57:53;34.55;;;16.10;;
40959;SDS011;27842;52.272;8.052;2023-02-23T15:02:55;36.88;;;16.65;;
40959;SDS011;27842;52.272;8.052;2023-02-23T15:05:34;36.92;;;18.20;;
40959;SDS011;27842;52.272;8.052;2023-02-23T15:08:06;39.80;;;16.98;;
40959;SDS011;27842;52.272;8.052;2023-02-23T15:10:36;37.35;;;17.13;;
40959;SDS011;27842;52.272;8.052;2023-02-23T15:13:09;33.10;;;15.35;;
40959;SDS011;27842;52.272;8.052;2023-02-23T15:15:41;32.08;;;15.65;;
40959;SDS011;27842;52.272;8.052;2023-02-23T15:21:31;32.30;;;15.30;;
40959;SDS011;27842;52.272;8.052;2023-02-23T15:24:05;37.60;;;15.80;;
40959;SDS011;27842;52.272;8.052;2023-02-23T15:26:35;34.78;;;15.60;;
40959;SDS011;27842;52.272;8.052;2023-02-23T15:31:34;33.55;;;16.02;;
40959;SDS011;27842;52.272;8.052;2023-02-23T15:34:01;31.48;;;15.00;;
40959;SDS011;27842;52.272;8.052;2023-02-23T15:38:55;33.60;;;15.43;;
40959;SDS011;27842;52.272;8.052;2023-02-23T15:46:34;33.30;;;14.88;;
40959;SDS011;27842;52.272;8.052;2023-02-23T15:49:02;31.73;;;14.35;;
40959;SDS011;27842;52.272;8.052;2023-02-23T15:51:31;34.58;;;14.98;;
40959;SDS011;27842;52.272;8.052;2023-02-23T15:54:02;34.35;;;15.15;;
40959;SDS011;27842;52.272;8.052;2023-02-23T15:59:12;34.00;;;14.52;;
40959;SDS011;27842;52.272;8.052;2023-02-23T16:01:44;37.40;;;16.40;;
40959;SDS011;27842;52.272;8.052;2023-02-23T16:11:46;34.72;;;14.98;;
40959;SDS011;27842;52.272;8.052;2023-02-23T16:14:17;36.67;;;15.65;;
40959;SDS011;27842;52.272;8.052;2023-02-23T16:16:47;34.20;;;15.18;;
40959;SDS011;27842;52.272;8.052;2023-02-23T16:19:15;37.10;;;15.68;;
40959;SDS011;27842;52.272;8.052;2023-02-23T16:21:50;37.05;;;16.83;;
40959;SDS011;27842;52.272;8.052;2023-02-23T16:24:19;33.85;;;15.57;;
40959;SDS011;27842;52.272;8.052;2023-02-23T16:26:54;38.50;;;16.75;;
40959;SDS011;27842;52.272;8.052;2023-02-23T16:29:26;33.65;;;14.10;;
40959;SDS011;27842;52.272;8.052;2023-02-23T16:32:00;37.22;;;15.52;;
40959;SDS011;27842;52.272;8.052;2023-02-23T16:34:31;33.50;;;14.88;;
40959;SDS011;27842;52.272;8.052;2023-02-23T16:37:00;34.63;;;16.00;;
40959;SDS011;27842;52.272;8.052;2023-02-23T16:39:39;32.92;;;15.27;;
40959;SDS011;27842;52.272;8.052;2023-02-23T16:42:05;35.83;;;17.17;;
40959;SDS011;27842;52.272;8.052;2023-02-23T16:44:47;36.95;;;15.80;;
40959;SDS011;27842;52.272;8.052;2023-02-23T16:49:48;35.15;;;15.18;;
40959;SDS011;27842;52.272;8.052;2023-02-23T16:52:16;33.47;;;15.25;;
40959;SDS011;27842;52.272;8.052;2023-02-23T16:54:43;34.17;;;15.57;;
40959;SDS011;27842;52.272;8.052;2023-02-23T16:57:24;37.20;;;15.98;;
40959;SDS011;27842;52.272;8.052;2023-02-23T16:59:53;34.75;;;15.80;;
40959;SDS011;27842;52.272;8.052;2023-02-23T17:02:21;37.88;;;16.38;;
40959;SDS011;27842;52.272;8.052;2023-02-23T17:04:47;34.38;;;15.35;;
40959;SDS011;27842;52.272;8.052;2023-02-23T17:07:15;34.63;;;16.20;;